Time;durP1;ratioP1;P1;durP2;ratioP2;P2;SDS_P1;SDS_P2;PMS_P1;PMS_P2;Temp;Humidity;BMP_temperature;BMP_pressure;BME280_temperature;BME280_humidity;BME280_pressure;Samples;Min_cycle;Max_cycle;Signal;HPM_P1;HPM_P2
2023/04/11 00:00:05;;;;;;;1.60;1.30;;;;;;;15.47;49.44;98280.84;5036885;27;103337;-64
2023/04/11 00:02:38;;;;;;;1.80;1.50;;;;;;;15.52;49.74;98275.06;5040040;27;102631;-64
2023/04/11 00:05:08;;;;;;;1.50;1.30;;;;;;;15.60;49.30;98254.69;5035551;27;102829;-64
2023/04/11 00:07:36;;;;;;;2.08;1.30;;;;;;;15.63;49.52;98238.38;5033520;27;103294;-64
2023/04/11 00:10:07;;;;;;;2.65;1.17;;;;;;;15.52;49.73;98224.50;5039267;27;103348;-65
2023/04/11 00:12:35;;;;;;;2.40;1.35;;;;;;;15.51;49.75;98212.16;5043829;27;102740;-64
2023/04/11 00:15:03;;;;;;;2.45;1.30;;;;;;;15.52;49.74;98208.53;5043716;27;102618;-65
2023/04/11 00:17:31;;;;;;;3.58;1.40;;;;;;;15.61;49.58;98205.75;5024591;27;103739;-64
2023/04/11 00:20:06;;;;;;;2.00;1.30;;;;;;;15.55;50.75;98194.91;5037989;27;103287;-64
2023/04/11 00:22:35;;;;;;;1.63;1.20;;;;;;;15.49;50.57;98203.50;5039888;27;102680;-64
2023/04/11 00:25:05;;;;;;;2.95;1.48;;;;;;;15.48;50.46;98201.81;5039247;27;103831;-64
2023/04/11 00:27:33;;;;;;;1.90;1.10;;;;;;;15.52;50.32;98204.00;5045107;27;104127;-65
2023/04/11 00:30:02;;;;;;;3.97;1.30;;;;;;;15.49;50.02;98199.03;5022987;27;104318;-64
2023/04/11 00:32:30;;;;;;;4.43;1.42;;;;;;;15.51;49.95;98196.19;5039308;27;102659;-65
2023/04/11 00:35:14;;;;;;;1.40;1.30;;;;;;;15.68;49.67;98186.50;5026973;27;102683;-64
2023/04/11 00:37:43;;;;;;;1.88;1.33;;;;;;;15.42;50.24;98181.94;5038947;27;103998;-64
2023/04/11 00:40:16;;;;;;;1.13;1.02;;;;;;;15.62;49.84;98198.59;5021680;27;103306;-64
2023/04/11 00:42:44;;;;;;;2.88;1.30;;;;;;;15.62;49.86;98211.94;5036729;27;102894;-64
2023/04/11 00:45:13;;;;;;;2.35;1.30;;;;;;;15.56;50.18;98199.22;5035665;27;102774;-65
2023/04/11 00:47:42;;;;;;;3.35;1.55;;;;;;;15.54;50.21;98196.72;5026996;27;104115;-64
2023/04/11 00:50:12;;;;;;;2.15;1.23;;;;;;;15.61;51.14;98187.13;5041836;27;103313;-64
2023/04/11 00:52:43;;;;;;;1.75;1.13;;;;;;;15.65;51.39;98188.50;5044716;27;102684;-64
2023/04/11 00:55:14;;;;;;;2.22;1.45;;;;;;;15.55;51.63;98187.72;5043404;27;102684;-64
2023/04/11 00:57:42;;;;;;;2.40;1.50;;;;;;;15.37;51.60;98189.56;5041712;27;104130;-65
2023/04/11 01:00:23;;;;;;;1.98;1.23;;;;;;;15.55;51.08;98190.41;5047179;27;103224;-64
2023/04/11 01:02:51;;;;;;;1.65;1.10;;;;;;;15.60;51.14;98184.63;5019602;27;102675;-64
2023/04/11 01:05:20;;;;;;;1.77;1.30;;;;;;;15.58;50.80;98187.44;5044349;27;102717;-63
2023/04/11 01:07:54;;;;;;;2.38;1.30;;;;;;;15.50;51.16;98198.00;5042954;27;104029;-64
2023/04/11 01:10:27;;;;;;;1.95;1.10;;;;;;;15.54;51.24;98191.41;5040524;27;103229;-64
2023/04/11 01:12:56;;;;;;;2.08;1.10;;;;;;;15.47;51.22;98190.31;5036246;27;102701;-64
2023/04/11 01:15:25;;;;;;;2.47;1.63;;;;;;;15.46;51.23;98194.00;5020565;27;104056;-64
2023/04/11 01:17:54;;;;;;;2.53;1.35;;;;;;;15.49;51.48;98199.03;5043064;27;103217;-63
2023/04/11 01:20:23;;;;;;;4.03;1.40;;;;;;;15.59;51.19;98209.56;5047705;27;103192;-64
2023/04/11 01:22:51;;;;;;;1.60;1.27;;;;;;;15.50;53.24;98199.84;5025555;27;102677;-64
2023/04/11 01:25:22;;;;;;;1.52;1.27;;;;;;;15.45;54.88;98194.94;5038169;27;103923;-64
2023/04/11 01:27:51;;;;;;;1.63;1.10;;;;;;;15.46;54.15;98195.78;5020225;27;104123;-64
2023/04/11 01:30:23;;;;;;;1.75;1.50;;;;;;;15.46;54.26;98212.63;5042966;27;103199;-64
2023/04/11 01:32:51;;;;;;;1.48;1.20;;;;;;;15.45;55.09;98229.56;5023670;27;102746;-65
2023/04/11 01:35:20;;;;;;;3.50;1.85;;;;;;;15.16;60.52;98225.44;5035842;27;102656;-64
2023/04/11 01:37:48;;;;;;;1.30;1.20;;;;;;;14.61;63.31;98219.31;5034942;27;103246;-64
2023/04/11 01:40:20;;;;;;;2.65;1.20;;;;;;;14.64;63.74;98211.91;5012359;27;103182;-65
2023/04/11 01:42:50;;;;;;;2.22;1.45;;;;;;;14.44;65.60;98212.97;5015159;27;102991;-64
2023/04/11 01:45:22;;;;;;;3.08;1.20;;;;;;;14.46;66.84;98206.50;5023043;27;104652;-64
2023/04/11 01:47:53;;;;;;;2.43;1.40;;;;;;;14.41;66.77;98206.13;5039265;27;103307;-64
2023/04/11 01:50:21;;;;;;;2.03;1.45;;;;;;;14.48;66.28;98222.34;5034281;27;103252;-64
2023/04/11 01:52:51;;;;;;;2.07;1.30;;;;;;;14.52;66.65;98240.47;5034260;27;102678;-65
2023/04/11 01:55:20;;;;;;;2.83;1.70;;;;;;;14.44;66.29;98248.34;5012865;27;102848;-64
2023/04/11 01:57:50;;;;;;;2.40;1.53;;;;;;;14.10;68.76;98251.63;5037050;27;103479;-64
2023/04/11 02:00:19;;;;;;;2.37;1.60;;;;;;;13.94;69.73;98260.19;5035265;27;103198;-65
2023/04/11 02:02:47;;;;;;;1.87;1.50;;;;;;;13.79;71.61;98257.13;5032357;27;102769;-65
2023/04/11 02:05:15;;;;;;;2.50;1.77;;;;;;;13.22;75.96;98273.06;5020576;27;103346;-64
2023/04/11 02:07:43;;;;;;;2.00;1.80;;;;;;;12.95;80.09;98296.69;5035142;27;104195;-65
2023/04/11 02:10:17;;;;;;;2.87;2.37;;;;;;;12.78;83.62;98303.47;5019360;27;105070;-65
2023/04/11 02:12:45;;;;;;;3.80;1.37;;;;;;;12.82;82.78;98301.38;5012770;27;103040;-64
2023/04/11 02:15:17;;;;;;;1.50;1.40;;;;;;;12.95;81.39;98304.63;5023350;27;103007;-65
2023/04/11 02:17:45;;;;;;;2.53;1.30;;;;;;;12.95;82.95;98301.97;5018818;27;105034;-64
2023/04/11 02:20:15;;;;;;;2.30;1.00;;;;;;;13.02;81.20;98303.97;5033975;27;103212;-64
2023/04/11 02:22:43;;;;;;;1.53;1.30;;;;;;;12.88;81.70;98322.06;5026343;27;102566;-65
2023/04/11 02:25:15;;;;;;;0.70;0.70;;;;;;;12.99;81.81;98330.75;5016734;27;103145;-65
2023/04/11 02:27:43;;;;;;;1.80;1.07;;;;;;;12.97;82.32;98330.03;5017290;27;102910;-66
2023/04/11 02:30:11;;;;;;;1.47;0.80;;;;;;;12.95;82.43;98334.66;5040859;27;103166;-65
2023/04/11 02:32:40;;;;;;;0.77;0.70;;;;;;;12.73;84.17;98337.50;5026117;27;102723;-65
2023/04/11 02:35:09;;;;;;;1.73;1.10;;;;;;;12.72;84.72;98330.50;5036083;27;102652;-66
2023/04/11 02:37:41;;;;;;;1.67;0.90;;;;;;;12.60;86.39;98302.44;5017538;27;104303;-65
2023/04/11 02:40:09;;;;;;;1.37;0.80;;;;;;;12.50;86.94;98302.38;5023581;27;103293;-66
2023/04/11 02:42:39;;;;;;;1.17;1.00;;;;;;;12.44;86.60;98296.75;5027389;27;103028;-66
2023/04/11 02:45:08;;;;;;;2.07;0.90;;;;;;;12.48;86.76;98292.88;5009144;27;102915;-65
2023/04/11 02:47:36;;;;;;;1.00;0.80;;;;;;;12.68;85.25;98299.94;5040267;27;103340;-66
2023/04/11 02:50:09;;;;;;;1.20;0.80;;;;;;;12.63;85.82;98307.47;5016994;27;105208;-66
2023/04/11 02:52:44;;;;;;;2.73;1.17;;;;;;;12.39;89.01;98301.59;5017359;27;102864;-66
2023/04/11 02:55:16;;;;;;;1.00;0.97;;;;;;;12.33;89.59;98297.69;5009905;27;103722;-66
2023/04/11 02:57:43;;;;;;;1.00;0.80;;;;;;;12.36;89.19;98310.66;5014165;27;104131;-65
2023/04/11 03:00:14;;;;;;;1.47;0.90;;;;;;;12.27;89.39;98311.44;5020199;27;103412;-66
2023/04/11 03:02:49;;;;;;;0.80;0.80;;;;;;;12.23;89.82;98309.19;5011292;27;103547;-66
2023/04/11 03:05:23;;;;;;;3.80;0.90;;;;;;;12.19;89.57;98317.41;5018493;27;102908;-66
2023/04/11 03:07:53;;;;;;;3.67;0.90;;;;;;;11.90;90.62;98308.41;5038301;27;103790;-65
2023/04/11 03:10:22;;;;;;;1.23;0.80;;;;;;;12.03;90.10;98309.09;5022986;27;103358;-66
2023/04/11 03:12:50;;;;;;;1.53;1.30;;;;;;;12.09;89.33;98311.22;5037611;27;102745;-65
2023/04/11 03:15:18;;;;;;;3.53;0.90;;;;;;;12.03;89.98;98311.72;5015457;27;102793;-66
2023/04/11 03:17:46;;;;;;;2.03;0.83;;;;;;;11.92;89.15;98311.78;5014007;27;103445;-66
2023/04/11 03:20:18;;;;;;;1.53;0.60;;;;;;;11.87;88.27;98314.00;5038008;27;103287;-65
2023/04/11 03:22:53;;;;;;;0.77;0.77;;;;;;;11.90;88.14;98321.66;5022313;27;102668;-66
2023/04/11 03:25:21;;;;;;;2.03;0.70;;;;;;;11.59;89.18;98325.16;5031127;27;102691;-65
2023/04/11 03:27:51;;;;;;;2.13;0.90;;;;;;;11.53;90.14;98338.88;5018460;27;103128;-65
2023/04/11 03:30:20;;;;;;;1.00;0.77;;;;;;;11.43;90.87;98337.91;5032662;27;103277;-65
2023/04/11 03:32:48;;;;;;;5.20;1.00;;;;;;;11.37;90.36;98314.59;5019522;27;102791;-65
2023/04/11 03:35:19;;;;;;;3.83;1.20;;;;;;;11.33;88.97;98307.91;5020316;27;102779;-66
2023/04/11 03:37:49;;;;;;;2.50;0.97;;;;;;;11.34;87.80;98304.31;5012637;27;103460;-66
2023/04/11 03:40:19;;;;;;;3.30;0.90;;;;;;;11.49;86.77;98297.75;5020527;27;102953;-65
2023/04/11 03:42:56;;;;;;;2.30;0.97;;;;;;;11.29;86.46;98312.59;5022238;27;102706;-67
2023/04/11 03:45:28;;;;;;;3.47;0.80;;;;;;;11.51;86.46;98307.22;5020763;27;103531;-65
2023/04/11 03:47:58;;;;;;;2.30;1.00;;;;;;;11.61;85.68;98302.88;5017313;27;105317;-66
2023/04/11 03:50:35;;;;;;;2.80;1.03;;;;;;;11.51;85.08;98303.75;5026813;27;103190;-66
2023/04/11 03:53:06;;;;;;;1.83;0.93;;;;;;;11.51;85.12;98304.59;5017870;27;102662;-66
2023/04/11 03:55:36;;;;;;;2.93;1.13;;;;;;;11.55;84.56;98302.53;5015697;27;103991;-66
2023/04/11 03:58:05;;;;;;;1.53;0.87;;;;;;;11.55;84.82;98305.19;5016856;27;102676;-66
2023/04/11 04:00:33;;;;;;;3.23;1.17;;;;;;;11.63;84.81;98321.25;5024134;27;103015;-65
2023/04/11 04:03:06;;;;;;;2.53;0.83;;;;;;;11.63;85.51;98323.91;5019471;27;102668;-65
2023/04/11 04:05:37;;;;;;;1.63;0.57;;;;;;;11.78;84.35;98335.91;5015417;27;104017;-65
2023/04/11 04:08:08;;;;;;;4.80;1.23;;;;;;;11.72;84.62;98330.28;5020469;27;103341;-66
2023/04/11 04:10:57;;;;;;;4.27;1.00;;;;;;;11.39;87.06;98333.88;5039963;27;102612;-65
2023/04/11 04:13:27;;;;;;;2.90;1.00;;;;;;;10.91;88.37;98336.00;5036208;27;102856;-65
2023/04/11 04:16:06;;;;;;;2.93;1.43;;;;;;;11.23;88.16;98331.59;5010142;27;102660;-65
2023/04/11 04:18:38;;;;;;;1.43;1.00;;;;;;;11.25;87.18;98342.06;5016675;27;103719;-64
2023/04/11 04:21:07;;;;;;;1.67;0.93;;;;;;;11.14;87.73;98348.22;5014805;27;103806;-64
2023/04/11 04:23:37;;;;;;;2.83;1.07;;;;;;;11.24;87.37;98361.53;5016191;27;103724;-63
2023/04/11 04:26:28;;;;;;;2.30;1.00;;;;;;;10.72;90.62;98356.91;5002651;27;103977;-64
2023/04/11 04:29:08;;;;;;;2.37;1.17;;;;;;;11.00;89.28;98345.84;5018505;27;103262;-64
2023/04/11 04:31:55;;;;;;;2.30;1.00;;;;;;;11.22;88.58;98358.19;5021710;27;104254;-64
2023/04/11 04:34:36;;;;;;;1.90;1.00;;;;;;;11.14;90.09;98365.88;5011953;27;102689;-65
2023/04/11 04:37:04;;;;;;;3.40;1.17;;;;;;;10.96;90.62;98371.66;5020091;27;103694;-66
2023/04/11 04:39:40;;;;;;;2.27;1.00;;;;;;;10.95;91.27;98372.63;5020011;27;103303;-67
2023/04/11 04:42:12;;;;;;;2.43;1.10;;;;;;;10.90;89.39;98373.94;5018748;27;103327;-67
2023/04/11 04:44:40;;;;;;;1.30;0.70;;;;;;;11.14;87.37;98387.03;5016922;27;102746;-67
2023/04/11 04:47:17;;;;;;;3.37;0.97;;;;;;;10.82;89.09;98402.78;5040709;27;102660;-66
2023/04/11 04:49:45;;;;;;;3.13;0.90;;;;;;;10.85;88.92;98406.03;5021436;27;103283;-67
2023/04/11 04:52:13;;;;;;;3.63;1.00;;;;;;;10.58;88.45;98396.75;5026183;27;103170;-67
2023/04/11 04:54:41;;;;;;;2.60;0.87;;;;;;;10.72;87.94;98402.63;5007999;27;102757;-66
2023/04/11 04:57:09;;;;;;;2.50;0.90;;;;;;;10.56;88.66;98412.72;5042254;27;102677;-67
2023/04/11 04:59:39;;;;;;;3.70;1.07;;;;;;;10.56;88.20;98423.28;5044467;27;104126;-66
2023/04/11 05:02:11;;;;;;;2.00;0.70;;;;;;;10.56;87.00;98425.06;5015068;27;103210;-66
2023/04/11 05:04:40;;;;;;;1.00;0.70;;;;;;;10.26;87.79;98428.25;5011049;27;102771;-67
2023/04/11 05:07:12;;;;;;;0.70;0.63;;;;;;;10.28;86.74;98445.66;5024984;27;104430;-66
2023/04/11 05:09:40;;;;;;;1.07;0.73;;;;;;;10.33;85.52;98455.88;5040962;27;103778;-66
2023/04/11 05:12:15;;;;;;;1.87;0.90;;;;;;;10.27;84.89;98462.44;5035701;27;103165;-66
2023/04/11 05:14:44;;;;;;;3.70;0.80;;;;;;;10.37;84.20;98459.97;5018918;27;103504;-67
2023/04/11 05:17:12;;;;;;;2.00;0.80;;;;;;;10.32;82.75;98470.88;5020240;27;102712;-66
2023/04/11 05:19:40;;;;;;;1.57;0.70;;;;;;;10.26;83.41;98473.13;5010576;27;103178;-66
2023/04/11 05:22:09;;;;;;;1.43;0.77;;;;;;;10.19;84.09;98474.56;5014019;27;103179;-65
2023/04/11 05:24:40;;;;;;;3.10;0.70;;;;;;;9.95;84.14;98478.94;5011278;27;102901;-66
2023/04/11 05:27:12;;;;;;;2.80;0.93;;;;;;;10.31;84.06;98455.13;5012996;27;102804;-66
2023/04/11 05:29:41;;;;;;;1.53;0.93;;;;;;;10.15;82.23;98465.16;5038371;27;103873;-68
2023/04/11 05:32:11;;;;;;;1.67;0.70;;;;;;;10.15;82.45;98460.72;5007872;27;104169;-67
2023/04/11 05:34:51;;;;;;;1.73;0.70;;;;;;;10.23;82.81;98446.94;5011158;27;102854;-66
2023/04/11 05:37:25;;;;;;;2.50;0.80;;;;;;;10.37;81.73;98449.41;5015732;27;104141;-66
2023/04/11 05:39:53;;;;;;;1.47;0.70;;;;;;;10.31;81.55;98450.69;5011208;27;103308;-66
2023/04/11 05:42:21;;;;;;;2.40;0.90;;;;;;;10.50;80.77;98455.44;5000682;27;103212;-67
2023/04/11 05:44:49;;;;;;;1.87;0.83;;;;;;;10.36;82.03;98447.69;5009374;27;102745;-67
2023/04/11 05:47:18;;;;;;;2.63;1.27;;;;;;;10.38;81.36;98451.94;5012476;27;103794;-68
2023/04/11 05:49:47;;;;;;;1.10;0.63;;;;;;;10.20;82.34;98452.47;5013017;27;103157;-67
2023/04/11 05:52:15;;;;;;;2.97;0.93;;;;;;;10.09;82.70;98449.75;5016231;27;103167;-67
2023/04/11 05:54:44;;;;;;;1.67;1.00;;;;;;;10.16;82.40;98451.84;5027996;27;103090;-67
2023/04/11 05:57:12;;;;;;;2.83;0.90;;;;;;;10.30;81.73;98459.56;5028984;27;103016;-67
2023/04/11 05:59:40;;;;;;;1.83;0.80;;;;;;;10.07;81.27;98456.94;5028011;27;104540;-67
2023/04/11 06:02:08;;;;;;;4.80;1.00;;;;;;;9.90;82.53;98468.75;5030902;27;103184;-67
2023/04/11 06:04:37;;;;;;;1.63;0.87;;;;;;;9.90;82.38;98471.38;5016483;27;102740;-68
2023/04/11 06:07:07;;;;;;;1.33;0.97;;;;;;;9.94;81.53;98472.81;5024363;27;102671;-68
2023/04/11 06:09:35;;;;;;;1.83;1.10;;;;;;;10.06;82.03;98477.22;5030631;27;103224;-68
2023/04/11 06:12:03;;;;;;;1.23;0.63;;;;;;;10.28;81.26;98481.75;5030153;27;103918;-68
2023/04/11 06:14:33;;;;;;;2.60;1.07;;;;;;;10.34;80.38;98476.03;5016713;27;103873;-67
2023/04/11 06:17:32;;;;;;;2.20;0.80;;;;;;;9.96;80.37;98467.44;5033837;27;102907;-67
2023/04/11 06:20:05;;;;;;;2.93;0.70;;;;;;;10.07;80.73;98483.34;5013812;27;103129;-67
2023/04/11 06:22:38;;;;;;;1.57;0.70;;;;;;;10.18;80.91;98480.78;5028115;27;103199;-67
2023/04/11 06:25:10;;;;;;;3.40;0.90;;;;;;;10.35;78.68;98472.44;5006378;27;102865;-67
2023/04/11 06:27:40;;;;;;;2.80;0.90;;;;;;;10.42;79.05;98478.94;5027475;27;103311;-66
2023/04/11 06:30:10;;;;;;;1.73;0.70;;;;;;;10.40;78.83;98486.16;5031592;27;104903;-68
2023/04/11 06:32:40;;;;;;;1.37;0.70;;;;;;;10.35;78.54;98490.94;5037357;27;102991;-66
2023/04/11 06:35:23;;;;;;;1.93;0.90;;;;;;;10.47;78.33;98487.34;5012752;27;102697;-68
2023/04/11 06:37:55;;;;;;;1.67;0.70;;;;;;;10.40;77.86;98502.00;5015500;27;103860;-67
2023/04/11 06:40:25;;;;;;;1.90;1.00;;;;;;;10.48;78.20;98500.47;5029222;27;103314;-67
2023/04/11 06:42:57;;;;;;;1.77;1.00;;;;;;;10.71;77.73;98514.59;5004223;27;103107;-67
2023/04/11 06:45:28;;;;;;;3.77;0.90;;;;;;;10.47;78.60;98529.63;5016176;27;102674;-67
2023/04/11 06:47:59;;;;;;;2.80;0.70;;;;;;;10.62;78.35;98517.91;5015473;27;102779;-66
2023/04/11 06:50:37;;;;;;;3.37;1.10;;;;;;;10.42;79.34;98521.19;5035532;27;103612;-67
2023/04/11 06:53:08;;;;;;;2.60;1.10;;;;;;;10.71;78.50;98526.94;5006368;27;104764;-67
2023/04/11 06:55:42;;;;;;;3.20;0.80;;;;;;;10.45;79.16;98528.88;5033403;27;102632;-67
2023/04/11 06:58:12;;;;;;;2.27;0.83;;;;;;;10.32;79.46;98528.13;5004736;27;102859;-69
2023/04/11 07:00:47;;;;;;;2.67;0.97;;;;;;;10.39;79.64;98538.13;5012024;27;103086;-67
2023/04/11 07:03:15;;;;;;;1.93;0.90;;;;;;;10.70;79.07;98530.53;5032120;27;103315;-67
2023/04/11 07:05:47;;;;;;;3.47;1.27;;;;;;;10.46;79.74;98534.06;5041707;27;102686;-66
2023/04/11 07:08:15;;;;;;;2.27;1.00;;;;;;;10.80;78.63;98537.69;5016050;27;104065;-65
2023/04/11 07:10:44;;;;;;;1.57;0.90;;;;;;;10.92;79.14;98552.59;5035853;27;103056;-64
2023/04/11 07:13:12;;;;;;;2.27;0.87;;;;;;;10.99;79.01;98543.25;5024097;27;103244;-65
2023/04/11 07:15:40;;;;;;;1.90;1.00;;;;;;;10.58;78.58;98547.31;5014575;27;102766;-65
2023/04/11 07:18:08;;;;;;;3.13;0.90;;;;;;;10.54;78.69;98565.19;5027626;27;102939;-64
2023/04/11 07:20:36;;;;;;;3.10;1.30;;;;;;;10.85;78.87;98566.38;5018747;27;103255;-64
2023/04/11 07:23:05;;;;;;;3.47;1.00;;;;;;;10.96;78.10;98561.97;5031929;27;103275;-65
2023/04/11 07:25:33;;;;;;;2.43;1.13;;;;;;;10.89;78.32;98560.75;5028240;27;102733;-65
2023/04/11 07:28:06;;;;;;;1.83;1.07;;;;;;;10.74;78.85;98569.84;5018539;27;103098;-65
2023/04/11 07:30:34;;;;;;;3.73;1.20;;;;;;;11.04;76.96;98575.44;5033667;27;103841;-65
2023/04/11 07:33:02;;;;;;;4.30;1.53;;;;;;;10.93;75.45;98586.00;5037552;27;103183;-57
2023/04/11 07:35:33;;;;;;;3.90;1.37;;;;;;;11.26;75.29;98584.38;5033174;27;103277;-58
2023/04/11 07:38:01;;;;;;;3.33;1.00;;;;;;;11.24;75.15;98578.38;5031308;27;102876;-58
2023/04/11 07:40:31;;;;;;;3.43;1.10;;;;;;;11.33;74.08;98585.59;5034016;27;103652;-57
2023/04/11 07:43:00;;;;;;;3.53;1.47;;;;;;;11.32;74.31;98584.75;5040448;27;103311;-57
2023/04/11 07:45:28;;;;;;;4.87;1.20;;;;;;;11.32;72.74;98591.84;5025573;27;102840;-58
2023/04/11 07:48:00;;;;;;;3.23;1.20;;;;;;;11.80;72.16;98582.78;5015013;27;102683;-58
2023/04/11 07:50:28;;;;;;;3.63;1.03;;;;;;;12.16;70.39;98585.13;5032850;27;103219;-58
2023/04/11 07:52:56;;;;;;;3.10;1.07;;;;;;;12.47;71.23;98588.78;5034274;27;103350;-58
2023/04/11 07:55:24;;;;;;;5.47;1.83;;;;;;;12.27;71.04;98586.09;5031291;27;103240;-57
2023/04/11 07:57:53;;;;;;;4.80;1.43;;;;;;;11.93;71.74;98591.41;5037965;27;102700;-58
2023/04/11 08:00:24;;;;;;;3.20;1.10;;;;;;;12.14;68.92;98581.78;5029460;27;103286;-57
2023/04/11 08:02:52;;;;;;;3.47;1.27;;;;;;;12.34;69.37;98576.66;5035145;27;103302;-57
2023/04/11 08:05:21;;;;;;;4.80;1.43;;;;;;;12.50;68.75;98583.22;5039401;27;102824;-57
2023/04/11 08:07:51;;;;;;;4.03;1.10;;;;;;;12.56;68.89;98582.72;5038683;27;103117;-57
2023/04/11 08:10:20;;;;;;;6.57;1.60;;;;;;;12.59;67.73;98592.25;5025470;27;103264;-57
2023/04/11 08:12:48;;;;;;;3.20;1.00;;;;;;;12.49;67.96;98591.31;5037112;27;103220;-57
2023/04/11 08:15:17;;;;;;;7.00;1.33;;;;;;;12.85;66.15;98585.63;5037867;27;102897;-57
2023/04/11 08:17:48;;;;;;;3.37;1.13;;;;;;;13.01;65.85;98583.38;5038238;27;102954;-58
2023/04/11 08:20:17;;;;;;;3.37;1.37;;;;;;;12.93;65.76;98583.19;5035211;27;103598;-58
2023/04/11 08:22:45;;;;;;;2.63;1.40;;;;;;;13.26;65.51;98590.97;5014992;27;103280;-58
2023/04/11 08:25:15;;;;;;;3.37;1.10;;;;;;;13.16;64.72;98590.09;5038850;27;102581;-57
2023/04/11 08:27:42;;;;;;;4.40;1.33;;;;;;;13.35;63.70;98592.84;5029113;27;102776;-58
2023/04/11 08:30:11;;;;;;;4.27;1.07;;;;;;;13.14;62.96;98599.97;5038016;27;103281;-57
2023/04/11 08:32:43;;;;;;;3.93;1.40;;;;;;;13.20;62.09;98603.91;5042578;27;103347;-58
2023/04/11 08:35:11;;;;;;;3.17;1.10;;;;;;;13.39;60.80;98603.22;5036010;27;102834;-58
2023/04/11 08:37:39;;;;;;;4.43;1.10;;;;;;;13.54;60.24;98612.50;5032230;27;103859;-58
2023/04/11 08:40:08;;;;;;;4.30;1.30;;;;;;;13.24;60.71;98611.50;5034427;27;103308;-58
2023/04/11 08:42:36;;;;;;;4.53;1.30;;;;;;;13.81;59.25;98610.16;5018118;27;103272;-58
2023/04/11 08:45:07;;;;;;;5.43;1.70;;;;;;;14.42;59.35;98611.78;5015253;27;104420;-57
2023/04/11 08:47:36;;;;;;;4.23;1.10;;;;;;;13.28;57.81;98612.91;5039769;27;102731;-58
2023/04/11 08:50:07;;;;;;;4.13;1.40;;;;;;;13.48;59.17;98608.56;5038199;27;103336;-58
2023/04/11 08:52:37;;;;;;;5.47;1.43;;;;;;;13.87;57.09;98598.97;5042327;27;103272;-57
2023/04/11 08:55:06;;;;;;;2.80;1.27;;;;;;;13.89;57.25;98602.34;5018728;27;102759;-57
2023/04/11 08:57:36;;;;;;;4.67;1.23;;;;;;;13.72;56.30;98600.31;5018364;27;103760;-58
2023/04/11 09:00:13;;;;;;;4.20;1.70;;;;;;;13.26;58.38;98604.25;5031970;27;103265;-58
2023/04/11 09:02:55;;;;;;;4.07;1.33;;;;;;;13.71;56.49;98607.44;5017540;27;103226;-58
2023/04/11 09:05:30;;;;;;;5.60;1.20;;;;;;;14.34;54.97;98598.31;5012159;27;102820;-59
2023/04/11 09:07:59;;;;;;;4.03;1.20;;;;;;;14.69;54.82;98611.09;5013342;27;103161;-57
2023/04/11 09:10:27;;;;;;;4.27;1.27;;;;;;;14.48;53.37;98605.88;5014737;27;103381;-59
2023/04/11 09:12:56;;;;;;;7.10;1.60;;;;;;;14.73;53.06;98606.34;5026748;27;103310;-57
2023/04/11 09:15:26;;;;;;;2.93;1.53;;;;;;;14.72;52.63;98602.00;5029887;27;103000;-58
2023/04/11 09:17:56;;;;;;;5.70;1.50;;;;;;;15.10;52.02;98613.47;5011801;27;102785;-57
2023/04/11 09:20:30;;;;;;;7.63;1.20;;;;;;;14.61;52.83;98610.94;5025506;27;103890;-57
2023/04/11 09:22:58;;;;;;;2.07;1.10;;;;;;;14.50;54.58;98600.44;5031915;27;103324;-57
2023/04/11 09:25:27;;;;;;;3.63;1.00;;;;;;;14.08;53.50;98601.56;5015227;27;102694;-58
2023/04/11 09:28:07;;;;;;;3.90;1.33;;;;;;;15.04;52.83;98611.38;5009163;27;103852;-57
2023/04/11 09:30:35;;;;;;;4.30;1.00;;;;;;;14.46;53.07;98604.34;5024982;27;103267;-57
2023/04/11 09:33:19;;;;;;;2.30;1.30;;;;;;;14.35;53.82;98615.94;5036062;27;103338;-58
2023/04/11 09:35:49;;;;;;;4.47;1.33;;;;;;;14.86;52.00;98606.91;5034169;27;102672;-57
2023/04/11 09:38:37;;;;;;;6.70;1.50;;;;;;;15.17;51.64;98604.94;5020782;27;102701;-58
2023/04/11 09:41:06;;;;;;;4.07;1.00;;;;;;;14.37;53.05;98613.16;5027688;27;103330;-58
2023/04/11 09:43:49;;;;;;;3.93;1.17;;;;;;;15.49;50.70;98600.16;5032988;27;103276;-58
2023/04/11 09:46:19;;;;;;;5.23;1.40;;;;;;;16.11;48.94;98611.00;5031020;27;102973;-58
2023/04/11 09:48:48;;;;;;;2.00;1.17;;;;;;;15.43;50.90;98598.88;5021230;27;103772;-58
2023/04/11 09:51:18;;;;;;;3.90;1.47;;;;;;;16.37;50.75;98595.13;5025544;27;104578;-58
2023/04/11 09:54:02;;;;;;;4.83;1.07;;;;;;;16.37;49.23;98603.13;5028097;27;103325;-57
2023/04/11 09:56:32;;;;;;;3.97;1.10;;;;;;;15.76;49.53;98594.03;5011445;27;103197;-58
2023/04/11 09:59:03;;;;;;;2.77;1.07;;;;;;;15.40;49.91;98608.97;5031772;27;103827;-58
2023/04/11 10:01:31;;;;;;;4.50;1.30;;;;;;;15.33;49.10;98599.84;5026425;27;104251;-58
2023/04/11 10:04:00;;;;;;;3.13;1.40;;;;;;;15.13;49.54;98600.91;5025946;27;103219;-58
2023/04/11 10:06:34;;;;;;;1.97;1.10;;;;;;;15.48;49.56;98604.63;5024787;27;103237;-58
2023/04/11 10:09:07;;;;;;;3.40;0.97;;;;;;;15.87;49.01;98597.38;5028960;27;104628;-57
2023/04/11 10:11:37;;;;;;;3.00;0.97;;;;;;;15.97;48.64;98613.31;5026437;27;103139;-57
2023/04/11 10:14:05;;;;;;;2.87;1.20;;;;;;;15.66;50.13;98605.56;5024977;27;103298;-58
2023/04/11 10:16:33;;;;;;;4.17;1.20;;;;;;;15.28;48.67;98594.97;5028300;27;102701;-58
2023/04/11 10:19:22;;;;;;;4.18;1.75;;;;;;;15.44;49.49;98599.69;5036607;27;102630;-58
2023/04/11 10:21:52;;;;;;;3.85;1.10;;;;;;;15.26;48.98;98618.25;5016710;27;103455;-58
2023/04/11 10:24:20;;;;;;;2.42;0.98;;;;;;;14.65;49.61;98622.16;5030496;27;103224;-57
2023/04/11 10:26:50;;;;;;;4.83;1.20;;;;;;;14.91;50.03;98617.97;5005364;27;102859;-58
2023/04/11 10:29:58;;;;;;;3.03;1.30;;;;;;;14.58;49.49;98616.53;5028547;27;102837;-58
2023/04/11 10:32:26;;;;;;;3.65;0.98;;;;;;;14.32;51.54;98632.16;5018692;27;103748;-58
2023/04/11 10:35:22;;;;;;;4.00;1.40;;;;;;;14.42;52.30;98627.72;5011112;27;103131;-58
2023/04/11 10:37:51;;;;;;;3.60;1.17;;;;;;;14.75;51.77;98620.34;5034879;27;103444;-57
2023/04/11 10:40:20;;;;;;;3.03;1.10;;;;;;;15.17;52.92;98619.09;5034385;27;104095;-58
2023/04/11 10:42:48;;;;;;;4.60;1.47;;;;;;;15.26;52.44;98618.25;5031237;27;104166;-57
2023/04/11 10:45:18;;;;;;;3.23;1.17;;;;;;;15.02;51.49;98623.13;5023387;27;103687;-58
2023/04/11 10:48:00;;;;;;;3.72;1.80;;;;;;;15.56;51.60;98615.41;5015361;27;102739;-57
2023/04/11 10:50:39;;;;;;;3.60;1.47;;;;;;;15.24;51.14;98620.19;5025432;27;103235;-58
2023/04/11 10:53:13;;;;;;;3.20;1.00;;;;;;;15.21;50.96;98625.81;5030744;27;103330;-58
2023/04/11 10:55:46;;;;;;;6.28;1.30;;;;;;;15.12;49.19;98629.31;5011006;27;103220;-58
2023/04/11 10:58:18;;;;;;;5.43;1.15;;;;;;;15.84;48.99;98618.13;5011170;27;103315;-58
2023/04/11 11:01:15;;;;;;;3.88;1.10;;;;;;;15.29;48.69;98619.78;5012252;27;102701;-58
2023/04/11 11:03:59;;;;;;;3.60;1.23;;;;;;;14.93;50.12;98616.03;5027149;27;103386;-58
2023/04/11 11:06:27;;;;;;;4.72;1.02;;;;;;;14.95;49.36;98624.69;5038142;27;103198;-58
2023/04/11 11:08:58;;;;;;;2.45;0.90;;;;;;;15.42;48.65;98613.16;5027868;27;102743;-58
2023/04/11 11:11:26;;;;;;;4.75;1.05;;;;;;;15.14;47.78;98619.38;5032823;27;102693;-58
2023/04/11 11:13:55;;;;;;;3.80;1.38;;;;;;;15.40;47.26;98614.28;5001551;27;105101;-59
2023/04/11 11:16:25;;;;;;;2.58;1.00;;;;;;;15.30;47.37;98614.28;5030945;27;103449;-57
2023/04/11 11:18:55;;;;;;;3.25;1.05;;;;;;;15.14;45.62;98614.03;5009667;27;102852;-57
2023/04/11 11:21:26;;;;;;;4.50;1.25;;;;;;;15.47;45.64;98618.91;5010028;27;102870;-57
2023/04/11 11:23:58;;;;;;;1.65;0.98;;;;;;;15.84;44.25;98608.31;5038086;27;103971;-58
2023/04/11 11:26:36;;;;;;;4.15;1.00;;;;;;;16.00;43.75;98613.03;5032237;27;103376;-58
2023/04/11 11:29:04;;;;;;;4.53;1.70;;;;;;;16.07;44.31;98619.44;5034930;27;102684;-58
2023/04/11 11:31:38;;;;;;;4.63;1.42;;;;;;;15.63;45.20;98621.81;5027903;27;104034;-58
2023/04/11 11:34:06;;;;;;;8.05;1.42;;;;;;;16.33;44.45;98609.78;5004917;27;103340;-58
2023/04/11 11:36:51;;;;;;;3.78;1.25;;;;;;;15.88;45.41;98603.53;5026549;27;103382;-58
2023/04/11 11:39:21;;;;;;;2.08;0.85;;;;;;;16.21;43.67;98605.63;5026607;27;103135;-58
2023/04/11 11:41:51;;;;;;;5.00;1.17;;;;;;;16.65;43.95;98610.16;5007079;27;103782;-59